createdAt,value
2022-12-20T00:00:00.639Z,0.07
2022-12-20T00:05:01.431Z,0.09
2022-12-20T00:10:03.606Z,0.03
2022-12-20T00:15:04.767Z,0.09
2022-12-20T00:20:07.041Z,0.13
2022-12-20T00:25:09.785Z,0.10
2022-12-20T00:30:11.291Z,0.11
2022-12-20T00:35:12.445Z,0.11
2022-12-20T00:40:15.015Z,0.02
2022-12-20T00:45:15.929Z,0.13
2022-12-20T00:50:16.905Z,0.05
2022-12-20T00:55:19.019Z,0.08
2022-12-20T01:00:20.788Z,0.17
2022-12-20T01:05:21.571Z,0.22
2022-12-20T01:10:24.033Z,0.27
2022-12-20T01:15:25.137Z,0.46
2022-12-20T01:20:27.362Z,0.60
2022-12-20T01:25:30.020Z,0.60
2022-12-20T01:30:31.114Z,0.69
2022-12-20T01:35:31.922Z,0.64
2022-12-20T01:40:34.293Z,0.59
2022-12-20T01:45:35.120Z,0.67
2022-12-20T01:50:36.666Z,0.69
2022-12-20T01:55:38.992Z,0.65
2022-12-20T02:00:40.056Z,0.70
2022-12-20T02:05:44.364Z,0.71
2022-12-20T02:11:01.644Z,0.75
2022-12-20T02:16:04.905Z,0.80
2022-12-20T02:21:25.049Z,0.80
2022-12-20T02:26:58.304Z,0.83
2022-12-20T02:32:04.455Z,0.80
2022-12-20T02:37:05.624Z,0.74
2022-12-20T02:42:10.408Z,0.79
2022-12-20T02:47:17.039Z,0.81
2022-12-20T02:52:21.985Z,0.77
2022-12-20T02:57:30.052Z,0.72
2022-12-20T03:02:55.067Z,0.72
2022-12-20T03:07:57.683Z,0.69
2022-12-20T03:12:59.570Z,0.72
2022-12-20T03:18:04.424Z,0.77
2022-12-20T03:23:05.457Z,0.75
2022-12-20T03:28:06.312Z,0.78
2022-12-20T03:33:08.900Z,0.89
2022-12-20T03:38:10.731Z,0.87
2022-12-20T03:43:11.865Z,0.85
2022-12-20T03:48:14.137Z,0.95
2022-12-20T03:53:14.970Z,0.96
2022-12-20T03:58:17.229Z,0.95
2022-12-20T04:03:19.660Z,1.00
2022-12-20T04:08:20.621Z,0.99
2022-12-20T04:13:23.577Z,1.02
2022-12-20T04:18:25.894Z,0.98
2022-12-20T04:23:27.926Z,0.97
2022-12-20T04:28:28.819Z,1.02
2022-12-20T04:33:31.630Z,1.01
2022-12-20T04:38:33.406Z,1.01
2022-12-20T04:43:34.434Z,0.99
2022-12-20T04:48:58.415Z,0.91
2022-12-20T04:54:00.369Z,0.90
2022-12-20T04:59:10.965Z,0.80
2022-12-20T05:04:14.837Z,0.74
2022-12-20T05:09:16.001Z,0.69
2022-12-20T05:14:17.312Z,0.74
2022-12-20T05:19:19.528Z,0.78
2022-12-20T05:24:43.633Z,0.83
2022-12-20T05:29:56.346Z,0.78
2022-12-20T05:34:59.101Z,0.90
2022-12-20T05:40:00.055Z,0.90
2022-12-20T05:45:01.010Z,0.93
2022-12-20T05:50:07.424Z,0.95
2022-12-20T05:55:15.278Z,1.04
2022-12-20T06:00:17.067Z,1.07
2022-12-20T06:05:19.816Z,1.06
2022-12-20T06:10:21.940Z,1.10
2022-12-20T06:15:27.886Z,1.10
2022-12-20T06:20:31.288Z,1.12
2022-12-20T06:25:34.490Z,1.10
2022-12-20T06:30:35.971Z,1.08
2022-12-20T06:35:42.682Z,1.12
2022-12-20T06:40:43.689Z,1.10
2022-12-20T06:45:44.574Z,1.06
2022-12-20T06:50:55.628Z,1.08
2022-12-20T06:55:58.008Z,1.01
2022-12-20T07:00:59.201Z,1.03
2022-12-20T07:06:01.494Z,1.08
2022-12-20T07:11:06.714Z,1.09
2022-12-20T07:16:08.262Z,1.12
2022-12-20T07:21:10.520Z,1.15
2022-12-20T07:26:11.747Z,1.28
2022-12-20T07:31:12.602Z,1.17
2022-12-20T07:36:15.934Z,1.20
2022-12-20T07:41:18.927Z,1.29
2022-12-20T07:46:20.023Z,1.42
2022-12-20T07:51:26.682Z,1.53
2022-12-20T07:56:28.166Z,1.58
2022-12-20T08:01:30.656Z,1.41
2022-12-20T08:06:33.445Z,1.44
2022-12-20T08:11:36.280Z,1.44
2022-12-20T08:16:37.269Z,1.39
2022-12-20T08:21:39.809Z,1.42
2022-12-20T08:26:41.760Z,1.52
2022-12-20T08:31:49.455Z,1.44
2022-12-20T08:36:52.416Z,1.48
2022-12-20T08:41:53.190Z,1.48
2022-12-20T08:46:54.619Z,1.47
2022-12-20T08:51:56.861Z,1.52
2022-12-20T08:56:57.700Z,1.83
2022-12-20T09:01:59.504Z,2.14
2022-12-20T09:07:01.716Z,2.14
2022-12-20T09:12:02.621Z,2.06
2022-12-20T09:17:03.401Z,1.90
2022-12-20T09:22:05.547Z,1.92
2022-12-20T09:27:07.385Z,1.92
2022-12-20T09:32:08.805Z,1.96
2022-12-20T09:37:11.176Z,1.97
2022-12-20T09:42:14.953Z,2.16
2022-12-20T09:47:18.963Z,2.24
2022-12-20T09:52:33.084Z,2.21
2022-12-20T09:57:48.825Z,2.45
2022-12-20T10:03:06.640Z,2.46
2022-12-20T10:08:21.508Z,2.74
2022-12-20T10:13:35.776Z,2.63
2022-12-20T10:18:56.333Z,2.46
2022-12-20T10:24:02.466Z,2.48
2022-12-20T10:29:03.313Z,2.36
2022-12-20T10:34:04.149Z,2.19
2022-12-20T10:39:09.152Z,2.20
2022-12-20T10:44:19.795Z,2.28
2022-12-20T10:49:31.136Z,2.23
2022-12-20T10:54:36.381Z,2.25
2022-12-20T10:59:40.391Z,2.12
2022-12-20T11:04:41.209Z,2.23
2022-12-20T11:09:54.011Z,2.31
2022-12-20T11:15:14.328Z,2.22
2022-12-20T11:20:28.158Z,2.37
2022-12-20T11:25:40.914Z,2.46
2022-12-20T11:30:50.971Z,2.67
2022-12-20T11:35:56.671Z,2.83
2022-12-20T11:41:10.895Z,2.59
2022-12-20T11:46:26.255Z,2.42
2022-12-20T11:51:36.337Z,2.32
2022-12-20T11:56:44.312Z,2.31
2022-12-20T12:01:53.154Z,2.47
2022-12-20T12:06:59.373Z,2.45
2022-12-20T12:12:07.819Z,2.48
2022-12-20T12:17:15.880Z,2.41
2022-12-20T12:22:21.200Z,2.33
2022-12-20T12:27:26.743Z,2.25
2022-12-20T12:32:34.399Z,2.16
2022-12-20T12:37:55.827Z,2.03
2022-12-20T12:43:16.744Z,1.92
2022-12-20T12:48:23.272Z,1.89
2022-12-20T12:53:31.312Z,1.88
2022-12-20T12:58:35.513Z,1.87
2022-12-20T13:03:41.001Z,1.95
2022-12-20T13:08:49.954Z,1.97
2022-12-20T13:13:52.182Z,2.00
2022-12-20T13:19:13.188Z,1.96
2022-12-20T13:24:40.349Z,1.94
2022-12-20T13:30:22.083Z,2.06
2022-12-20T13:35:31.180Z,2.01
2022-12-20T13:40:37.608Z,1.88
2022-12-20T13:45:40.874Z,1.94
2022-12-20T13:50:48.155Z,1.99
2022-12-20T13:55:50.198Z,1.92
2022-12-20T14:00:53.681Z,1.84
2022-12-20T14:05:59.478Z,1.61
2022-12-20T14:11:09.846Z,1.69
2022-12-20T14:16:16.912Z,1.66
2022-12-20T14:21:19.368Z,1.64
2022-12-20T14:26:24.986Z,1.63
2022-12-20T14:31:29.975Z,1.72
2022-12-20T14:36:31.753Z,1.65
2022-12-20T14:41:36.058Z,1.75
2022-12-20T14:46:43.587Z,1.65
2022-12-20T14:51:48.048Z,1.62
2022-12-20T14:56:50.934Z,1.65
2022-12-20T15:01:53.705Z,1.57
2022-12-20T15:06:55.294Z,1.60
2022-12-20T15:11:57.442Z,1.61
2022-12-20T15:16:59.547Z,1.68
2022-12-20T15:22:01.203Z,1.60
2022-12-20T15:27:01.872Z,1.68
2022-12-20T15:32:07.760Z,1.57
2022-12-20T15:37:18.188Z,1.70
2022-12-20T15:42:23.002Z,1.71
2022-12-20T15:47:25.231Z,1.83
2022-12-20T15:52:26.234Z,1.85
2022-12-20T15:57:28.743Z,1.81
2022-12-20T16:02:31.789Z,1.83
2022-12-20T16:07:32.641Z,1.81
2022-12-20T16:12:35.612Z,1.78
2022-12-20T16:17:37.629Z,1.80
2022-12-20T16:22:38.484Z,1.74
2022-12-20T16:27:39.138Z,1.80
2022-12-20T16:32:41.485Z,1.82
2022-12-20T16:37:42.156Z,1.66
2022-12-20T16:42:42.820Z,1.69
2022-12-20T16:47:44.794Z,1.75
2022-12-20T16:52:46.464Z,1.72
2022-12-20T16:57:47.177Z,1.69
2022-12-20T17:02:49.315Z,1.79
2022-12-20T17:07:50.281Z,1.77
2022-12-20T17:12:51.471Z,1.75
2022-12-20T17:17:54.170Z,1.70
2022-12-20T17:22:56.573Z,1.60
2022-12-20T17:27:57.594Z,1.53
2022-12-20T17:32:59.596Z,1.44
2022-12-20T17:38:01.895Z,1.46
2022-12-20T17:43:02.608Z,1.51
2022-12-20T17:48:05.018Z,1.51
2022-12-20T17:53:05.702Z,1.56
2022-12-20T17:58:06.367Z,1.58
2022-12-20T18:03:12.681Z,1.56
2022-12-20T18:08:20.754Z,1.63
2022-12-20T18:13:21.445Z,1.63
2022-12-20T18:18:23.484Z,1.65
2022-12-20T18:23:24.162Z,1.65
2022-12-20T18:28:24.858Z,1.73
2022-12-20T18:33:26.886Z,1.70
2022-12-20T18:38:27.702Z,1.79
2022-12-20T18:43:30.648Z,1.74
2022-12-20T18:48:32.718Z,1.68
2022-12-20T18:53:34.151Z,1.77
2022-12-20T18:58:36.446Z,1.81
2022-12-20T19:03:39.343Z,1.73
2022-12-20T19:08:40.485Z,1.88
2022-12-20T19:13:43.670Z,1.81
2022-12-20T19:18:46.149Z,1.85
2022-12-20T19:23:49.640Z,1.86
2022-12-20T19:28:50.824Z,1.89
2022-12-20T19:33:55.781Z,1.97
2022-12-20T19:38:58.820Z,1.91
2022-12-20T19:44:00.379Z,1.89
2022-12-20T19:49:02.516Z,1.85
2022-12-20T19:54:03.335Z,1.73
2022-12-20T19:59:04.505Z,1.76
2022-12-20T20:04:07.757Z,1.74
2022-12-20T20:09:08.531Z,1.70
2022-12-20T20:14:10.367Z,1.80
2022-12-20T20:19:12.520Z,1.75
2022-12-20T20:24:13.328Z,1.76
2022-12-20T20:29:14.076Z,1.78
2022-12-20T20:34:16.186Z,1.78
2022-12-20T20:39:16.910Z,1.73
2022-12-20T20:44:17.729Z,1.73
2022-12-20T20:49:20.858Z,1.66
2022-12-20T20:54:21.716Z,1.66
2022-12-20T20:59:22.880Z,1.66
2022-12-20T21:04:25.011Z,1.62
2022-12-20T21:09:25.723Z,1.59
2022-12-20T21:15:00.669Z,1.69
2022-12-20T21:19:48.488Z,1.74
2022-12-20T21:24:49.185Z,1.74
2022-12-20T21:29:49.852Z,1.70
2022-12-20T21:34:52.574Z,1.68
2022-12-20T21:39:53.659Z,1.68
2022-12-20T21:44:54.308Z,1.74
2022-12-20T21:49:57.353Z,1.76
2022-12-20T21:54:58.095Z,1.78
2022-12-20T21:59:58.790Z,1.72
2022-12-20T22:05:00.863Z,1.76
2022-12-20T22:10:01.583Z,1.75
2022-12-20T22:15:02.284Z,1.76
2022-12-20T22:20:04.682Z,1.73
2022-12-20T22:25:05.845Z,1.79
2022-12-20T22:30:07.883Z,1.66
2022-12-20T22:35:10.491Z,1.66
2022-12-20T22:40:11.918Z,1.66
2022-12-20T22:45:13.095Z,1.63
2022-12-20T22:50:15.677Z,1.67
2022-12-20T22:55:16.721Z,1.70
2022-12-20T23:00:17.809Z,1.64
2022-12-20T23:05:19.825Z,1.63
2022-12-20T23:10:34.465Z,1.62
2022-12-20T23:15:44.049Z,1.52
2022-12-20T23:21:08.642Z,1.54
2022-12-20T23:26:11.247Z,1.61
2022-12-20T23:31:12.182Z,1.58
2022-12-20T23:36:14.289Z,1.69
2022-12-20T23:41:16.744Z,1.67
2022-12-20T23:46:19.680Z,1.60
2022-12-20T23:51:22.618Z,1.67
2022-12-20T23:56:23.881Z,1.67
